createdAt,value
2017-10-17T00:00:03.135Z,10.6
2017-10-17T00:15:03.105Z,10.6
2017-10-17T00:30:04.390Z,10.6
2017-10-17T00:45:04.549Z,10.6
2017-10-17T01:00:06.191Z,10.6
2017-10-17T01:15:03.382Z,10.6
2017-10-17T01:30:05.241Z,10.5
2017-10-17T01:45:04.004Z,10.5
2017-10-17T02:00:03.648Z,10.4
2017-10-17T02:15:04.436Z,10.4
2017-10-17T02:30:04.198Z,10.4
2017-10-17T02:45:04.006Z,10.4
2017-10-17T03:00:03.314Z,10.4
2017-10-17T03:15:04.991Z,10.3
2017-10-17T03:30:03.602Z,10.2
2017-10-17T03:45:04.354Z,10.2
2017-10-17T04:00:04.934Z,10.2
2017-10-17T04:15:02.755Z,10.2
2017-10-17T04:30:06.843Z,10.2
2017-10-17T04:45:04.554Z,10.1
2017-10-17T05:00:07.341Z,10.1
2017-10-17T05:15:05.093Z,10.1
2017-10-17T05:30:05.687Z,10.1
2017-10-17T05:45:05.089Z,10
2017-10-17T06:00:11.051Z,10
2017-10-17T06:15:03.500Z,9.9
2017-10-17T06:30:09.103Z,9.9
2017-10-17T06:45:03.744Z,9.9
2017-10-17T07:00:07.961Z,9.9
2017-10-17T07:15:02.905Z,9.9
2017-10-17T07:30:03.800Z,9.9
2017-10-17T07:45:04.268Z,9.9
2017-10-17T08:00:04.468Z,9.8
2017-10-17T08:15:03.438Z,9.8
2017-10-17T08:30:06.010Z,9.8
2017-10-17T08:45:03.076Z,9.8
2017-10-17T09:00:03.095Z,9.8
2017-10-17T09:15:04.444Z,9.8
2017-10-17T09:30:05.646Z,9.8
2017-10-17T09:45:42.476Z,9.9
2017-10-17T10:00:14.366Z,9.9
2017-10-17T10:15:06.938Z,9.9
2017-10-17T10:30:09.900Z,10
2017-10-17T10:45:03.300Z,10
2017-10-17T11:00:04.609Z,10.1
2017-10-17T11:15:02.934Z,10.1
2017-10-17T11:30:03.326Z,10.2
2017-10-17T11:45:03.323Z,10.2
2017-10-17T12:00:03.802Z,10.2
2017-10-17T12:15:03.933Z,10.3
2017-10-17T12:30:05.008Z,10.4
2017-10-17T12:45:02.775Z,10.4
2017-10-17T13:00:02.716Z,10.4
2017-10-17T13:15:02.959Z,10.4
2017-10-17T13:30:06.151Z,10.5
2017-10-17T13:45:04.057Z,10.6
2017-10-17T14:00:03.022Z,10.6
2017-10-17T14:15:03.235Z,10.6
2017-10-17T14:30:04.642Z,10.6
2017-10-17T14:45:03.283Z,10.6
2017-10-17T15:00:06.477Z,10.6
2017-10-17T15:15:03.909Z,10.6
2017-10-17T15:30:03.017Z,10.6
2017-10-17T15:45:09.153Z,10.7
2017-10-17T16:00:02.982Z,10.7
2017-10-17T16:15:07.100Z,10.7
2017-10-17T16:30:07.811Z,10.7
2017-10-17T16:45:06.718Z,10.7
2017-10-17T17:00:06.257Z,10.7
2017-10-17T17:15:04.232Z,10.7
2017-10-17T17:30:07.665Z,10.7
2017-10-17T17:45:04.581Z,10.7
2017-10-17T18:00:02.936Z,10.7
2017-10-17T18:15:03.291Z,10.7
2017-10-17T18:30:07.685Z,10.7
2017-10-17T18:45:05.345Z,10.7
2017-10-17T19:00:03.350Z,10.7
2017-10-17T19:15:05.388Z,10.7
2017-10-17T19:30:05.584Z,10.7
2017-10-17T19:45:05.040Z,10.7
2017-10-17T20:00:02.894Z,10.7
2017-10-17T20:15:05.165Z,10.8
2017-10-17T20:30:03.258Z,10.7
2017-10-17T20:45:05.031Z,10.8
2017-10-17T21:00:03.551Z,10.8
2017-10-17T21:15:04.298Z,10.8
2017-10-17T21:30:04.909Z,10.7
2017-10-17T21:45:06.010Z,10.8
2017-10-17T22:00:04.122Z,10.8
2017-10-17T22:15:02.989Z,10.7
2017-10-17T22:30:03.197Z,10.7
2017-10-17T22:45:05.740Z,10.7
2017-10-17T23:00:03.137Z,10.7
2017-10-17T23:15:03.380Z,10.6
2017-10-17T23:30:04.206Z,10.6
2017-10-17T23:45:03.342Z,10.6
